Time;durP1;ratioP1;P1;durP2;ratioP2;P2;SDS_P1;SDS_P2;PMS_P1;PMS_P2;Temp;Humidity;BMP_temperature;BMP_pressure;BME280_temperature;BME280_humidity;BME280_pressure;Samples;Min_cycle;Max_cycle;Signal;HPM_P1;HPM_P2
2022/08/07 00:01:34;;;;;;;10.20;7.37;;;;;;;19.20;87.93;100704.39;1858929;77;20968;-91
2022/08/07 00:04:01;;;;;;;12.37;7.05;;;;;;;19.17;87.91;100702.87;1858910;77;21390;-90
2022/08/07 00:06:27;;;;;;;9.88;6.58;;;;;;;19.15;87.83;100707.98;1858985;77;20924;-91
2022/08/07 00:08:54;;;;;;;9.03;7.10;;;;;;;19.11;87.86;100703.44;1859235;77;21414;-91
2022/08/07 00:11:20;;;;;;;10.32;6.55;;;;;;;19.08;87.94;100706.91;1858863;77;21003;-91
2022/08/07 00:13:47;;;;;;;9.43;7.67;;;;;;;19.05;88.19;100706.20;1858760;76;20870;-91
2022/08/07 00:16:14;;;;;;;12.78;7.40;;;;;;;19.03;88.47;100698.00;1858984;77;20877;-90
2022/08/07 00:18:40;;;;;;;9.48;7.60;;;;;;;19.03;88.85;100702.86;1858762;76;20953;-91
2022/08/07 00:21:08;;;;;;;10.85;8.43;;;;;;;19.03;89.07;100704.18;1858944;77;21106;-91
2022/08/07 00:23:38;;;;;;;10.08;7.65;;;;;;;19.03;89.19;100700.19;1765844;77;20979;-91
2022/08/07 00:26:07;;;;;;;13.48;8.28;;;;;;;19.03;89.16;100700.19;1746189;81;20888;-90
2022/08/07 00:28:34;;;;;;;11.85;7.55;;;;;;;19.02;89.28;100706.97;1746330;82;20995;-90
2022/08/07 00:31:07;;;;;;;10.70;8.40;;;;;;;19.03;89.35;100701.99;1746687;82;20944;-91
2022/08/07 00:33:36;;;;;;;8.78;7.75;;;;;;;19.01;89.36;100707.47;1746679;82;21224;-92
2022/08/07 00:36:03;;;;;;;12.15;8.65;;;;;;;18.99;89.14;100704.13;1745792;82;20880;-92
2022/08/07 00:38:31;;;;;;;10.13;7.30;;;;;;;18.98;89.32;100702.42;1746925;82;20892;-91
2022/08/07 00:40:59;;;;;;;9.73;7.20;;;;;;;18.97;89.37;100702.09;1746877;82;20935;-91
2022/08/07 00:43:25;;;;;;;10.43;7.95;;;;;;;18.97;89.25;100704.75;1747157;82;20976;-91
2022/08/07 00:45:52;;;;;;;9.48;7.62;;;;;;;18.96;89.20;100707.05;1746383;82;21898;-92
2022/08/07 00:48:18;;;;;;;10.03;7.37;;;;;;;18.95;89.17;100704.05;1746171;82;20877;-92
2022/08/07 00:50:46;;;;;;;10.23;7.67;;;;;;;18.95;89.13;100702.73;1746205;82;21425;-91
2022/08/07 00:53:12;;;;;;;16.42;7.70;;;;;;;18.92;88.81;100705.69;1746239;80;20920;-91
2022/08/07 00:55:39;;;;;;;11.88;9.68;;;;;;;18.89;88.73;100708.61;1746200;82;20841;-91
2022/08/07 00:58:06;;;;;;;10.65;9.45;;;;;;;18.88;88.75;100712.77;1745930;82;21237;-92
2022/08/07 01:00:32;;;;;;;12.37;9.35;;;;;;;18.86;88.83;100711.57;1746237;80;20861;-91
2022/08/07 01:02:59;;;;;;;9.68;7.90;;;;;;;18.85;88.81;100713.86;1746082;82;20853;-91
2022/08/07 01:05:26;;;;;;;14.25;9.13;;;;;;;18.83;88.72;100715.36;1746311;82;20963;-91
2022/08/07 01:07:53;;;;;;;10.78;8.75;;;;;;;18.82;88.71;100715.48;1746097;82;20884;-92
2022/08/07 01:10:19;;;;;;;9.40;8.10;;;;;;;18.81;88.71;100715.98;1746591;82;21197;-92
2022/08/07 01:12:46;;;;;;;11.20;9.08;;;;;;;18.81;88.98;100715.16;1746226;82;20884;-91
2022/08/07 01:15:13;;;;;;;10.53;8.45;;;;;;;18.79;89.41;100707.81;1745348;82;20998;-90
2022/08/07 01:17:39;;;;;;;9.13;8.23;;;;;;;18.80;89.37;100715.63;1746660;82;20892;-91
2022/08/07 01:20:10;;;;;;;9.23;7.67;;;;;;;18.79;89.29;100715.79;1720988;82;20948;-92
2022/08/07 01:22:37;;;;;;;17.12;8.43;;;;;;;18.76;89.15;100714.20;1742955;80;21192;-91
2022/08/07 01:25:05;;;;;;;13.22;10.15;;;;;;;18.75;89.18;100713.03;1718251;83;20974;-92
2022/08/07 01:27:31;;;;;;;26.70;11.35;;;;;;;18.73;89.20;100709.18;1704708;83;21030;-91
2022/08/07 01:29:59;;;;;;;17.07;13.88;;;;;;;18.71;89.43;100706.32;1730629;83;21422;-92
2022/08/07 01:32:27;;;;;;;14.07;12.65;;;;;;;18.69;89.64;100704.30;1731012;82;20960;-91
2022/08/07 01:34:55;;;;;;;13.43;11.78;;;;;;;18.68;89.66;100710.61;1730745;82;21151;-91
2022/08/07 01:37:22;;;;;;;14.63;12.20;;;;;;;18.66;89.81;100706.75;1730624;83;20931;-91
2022/08/07 01:39:51;;;;;;;16.48;14.87;;;;;;;18.63;89.71;100714.52;1730777;82;20927;-91
2022/08/07 01:42:19;;;;;;;15.63;13.48;;;;;;;18.61;89.76;100711.66;1729666;82;20856;-91
2022/08/07 01:44:46;;;;;;;13.62;12.07;;;;;;;18.57;89.71;100721.72;1728226;83;20884;-91
2022/08/07 01:47:12;;;;;;;13.95;12.25;;;;;;;18.55;89.74;100719.70;1730652;82;21117;-91
2022/08/07 01:49:40;;;;;;;14.00;11.70;;;;;;;18.53;89.76;100718.99;1730623;82;20888;-92
2022/08/07 01:52:06;;;;;;;11.12;10.00;;;;;;;18.49;89.76;100712.28;1730768;83;21115;-91
2022/08/07 01:54:36;;;;;;;12.82;11.25;;;;;;;18.47;89.94;100714.23;1730697;82;21026;-91
2022/08/07 01:57:11;;;;;;;14.28;10.55;;;;;;;18.45;89.95;100712.21;1730875;82;20899;-91
2022/08/07 01:59:58;;;;;;;14.35;11.50;;;;;;;18.43;90.28;100711.05;1730775;82;21087;-90
2022/08/07 02:02:33;;;;;;;17.85;11.95;;;;;;;18.44;90.48;100715.86;1730732;82;20991;-91
2022/08/07 02:05:04;;;;;;;14.38;10.93;;;;;;;18.44;90.30;100721.17;1730820;81;20939;-91
2022/08/07 02:07:42;;;;;;;12.80;11.50;;;;;;;18.42;89.82;100716.48;1730771;83;20932;-92
2022/08/07 02:10:08;;;;;;;17.90;11.93;;;;;;;18.38;89.74;100721.23;1730645;82;20875;-91
2022/08/07 02:12:40;;;;;;;18.45;10.98;;;;;;;18.35;89.75;100718.03;1730606;83;21169;-91
2022/08/07 02:15:08;;;;;;;16.37;11.78;;;;;;;18.32;89.66;100715.64;1704891;83;20853;-91
2022/08/07 02:17:39;;;;;;;14.50;11.28;;;;;;;18.30;89.47;100722.44;1730667;82;20944;-91
2022/08/07 02:20:09;;;;;;;12.75;11.43;;;;;;;18.27;89.44;100725.85;1730466;83;20947;-90
2022/08/07 02:22:37;;;;;;;15.23;12.10;;;;;;;18.23;89.59;100727.47;1730553;80;20967;-90
2022/08/07 02:25:06;;;;;;;13.85;12.18;;;;;;;18.21;89.95;100724.61;1730622;82;21499;-91
2022/08/07 02:27:32;;;;;;;16.15;11.83;;;;;;;18.19;90.13;100729.22;1730645;82;20907;-90
2022/08/07 02:29:59;;;;;;;14.35;10.08;;;;;;;18.17;90.00;100721.37;1730578;82;20895;-91
2022/08/07 02:32:27;;;;;;;13.98;11.00;;;;;;;18.14;89.88;100724.33;1729417;82;20888;-90
2022/08/07 02:34:54;;;;;;;17.52;11.08;;;;;;;18.10;89.83;100730.05;1730999;82;21013;-92
2022/08/07 02:37:22;;;;;;;14.98;10.88;;;;;;;18.08;90.02;100731.51;1730415;81;21168;-91
2022/08/07 02:39:49;;;;;;;19.37;10.45;;;;;;;18.06;90.25;100729.97;1730787;82;21026;-91
2022/08/07 02:42:18;;;;;;;17.62;11.05;;;;;;;18.05;90.26;100729.60;1730773;82;20931;-90
2022/08/07 02:44:48;;;;;;;14.65;9.88;;;;;;;18.02;90.37;100726.74;1730563;81;21045;-91
2022/08/07 02:47:17;;;;;;;14.28;10.63;;;;;;;18.01;90.58;100731.71;1731209;82;20979;-91
2022/08/07 02:49:44;;;;;;;17.32;12.68;;;;;;;17.99;90.70;100727.86;1730854;83;21996;-91
2022/08/07 02:52:14;;;;;;;15.55;13.22;;;;;;;18.01;90.96;100732.55;1731052;82;20900;-90
2022/08/07 02:54:41;;;;;;;15.78;13.85;;;;;;;18.01;90.90;100730.39;1731060;83;20900;-91
2022/08/07 02:57:12;;;;;;;19.35;12.50;;;;;;;18.01;90.46;100729.89;1730851;82;20939;-91
2022/08/07 02:59:44;;;;;;;16.75;14.58;;;;;;;18.00;90.18;100734.00;1731207;82;21338;-90
2022/08/07 03:02:13;;;;;;;16.85;12.88;;;;;;;17.98;90.03;100735.95;1730739;82;21766;-92
2022/08/07 03:04:41;;;;;;;13.18;11.08;;;;;;;17.94;89.94;100736.73;1730687;82;20939;-92
2022/08/07 03:07:08;;;;;;;16.73;11.10;;;;;;;17.92;90.09;100742.66;1730482;83;21516;-91
2022/08/07 03:09:35;;;;;;;13.85;11.40;;;;;;;17.91;90.24;100742.29;1730790;82;21000;-92
2022/08/07 03:12:04;;;;;;;11.68;10.45;;;;;;;17.90;90.40;100743.28;1730623;82;20848;-92
2022/08/07 03:14:33;;;;;;;14.70;10.75;;;;;;;17.91;90.69;100748.09;1730657;81;21272;-90
2022/08/07 03:16:59;;;;;;;17.62;10.23;;;;;;;17.92;90.88;100745.31;1730508;81;20940;-90
2022/08/07 03:19:26;;;;;;;16.52;11.68;;;;;;;17.93;90.97;100744.33;1730924;81;21517;-91
2022/08/07 03:21:54;;;;;;;14.38;11.15;;;;;;;17.95;91.01;100744.20;1731171;82;20864;-91
2022/08/07 03:24:21;;;;;;;15.78;11.70;;;;;;;17.96;91.01;100749.37;1744468;81;20837;-91
2022/08/07 03:26:52;;;;;;;16.75;11.53;;;;;;;17.98;90.97;100747.89;1750207;82;21192;-90
2022/08/07 03:29:17;;;;;;;15.90;10.72;;;;;;;17.99;90.90;100752.23;1749827;82;20916;-90
2022/08/07 03:31:45;;;;;;;17.62;10.78;;;;;;;18.00;90.70;100747.27;1750658;82;20990;-89
2022/08/07 03:34:14;;;;;;;15.80;11.28;;;;;;;18.02;90.58;100755.44;1750501;82;20952;-90
2022/08/07 03:36:41;;;;;;;18.05;11.78;;;;;;;18.04;90.64;100752.66;1750476;80;20884;-90
2022/08/07 03:39:10;;;;;;;17.57;10.85;;;;;;;18.07;90.84;100758.17;1750250;82;21076;-90
2022/08/07 03:44:20;;;;;;;14.38;10.20;;;;;;;18.16;90.83;100758.67;1855098;77;22573;-91
2022/08/07 03:46:47;;;;;;;16.82;11.03;;;;;;;18.14;90.80;100754.84;1822756;78;20919;-91
2022/08/07 03:49:13;;;;;;;12.18;10.50;;;;;;;18.19;90.82;100757.92;1822662;78;21227;-92
2022/08/07 03:51:40;;;;;;;17.23;11.12;;;;;;;18.23;90.85;100765.13;1823078;78;20903;-91
2022/08/07 03:54:08;;;;;;;14.75;11.50;;;;;;;18.27;90.83;100760.36;1822763;78;20966;-91
2022/08/07 03:56:35;;;;;;;19.45;11.48;;;;;;;18.31;90.98;100754.64;1822700;78;20872;-90
2022/08/07 03:59:04;;;;;;;17.10;12.00;;;;;;;18.35;91.09;100756.53;1791739;78;20914;-91
2022/08/07 04:01:31;;;;;;;17.50;11.75;;;;;;;18.40;91.29;100761.76;1817231;78;21283;-91
2022/08/07 04:03:59;;;;;;;15.03;10.93;;;;;;;18.47;91.27;100762.04;1822714;78;20919;-92
2022/08/07 04:06:25;;;;;;;19.12;13.78;;;;;;;18.53;91.23;100759.33;1822906;78;20903;-91
2022/08/07 04:08:53;;;;;;;16.75;13.25;;;;;;;18.58;91.22;100757.91;1822870;78;20970;-89
2022/08/07 04:11:20;;;;;;;18.57;13.83;;;;;;;18.64;91.21;100756.53;1822676;78;20857;-91
2022/08/07 04:13:47;;;;;;;19.15;13.22;;;;;;;18.71;91.16;100750.98;1822657;78;21169;-92
2022/08/07 04:16:13;;;;;;;16.82;12.53;;;;;;;18.80;91.07;100748.84;1790750;78;20915;-90
2022/08/07 04:18:40;;;;;;;16.35;12.10;;;;;;;18.87;90.94;100748.27;1822404;78;20958;-91
2022/08/07 04:21:07;;;;;;;20.70;12.23;;;;;;;18.96;90.76;100750.90;1823098;78;21393;-91
2022/08/07 04:23:35;;;;;;;20.82;12.23;;;;;;;19.07;90.72;100750.40;1822908;78;20994;-92
2022/08/07 04:26:02;;;;;;;15.35;11.75;;;;;;;19.17;90.44;100754.71;1822841;78;21126;-91
2022/08/07 04:28:29;;;;;;;16.80;11.88;;;;;;;19.29;90.36;100750.05;1822730;78;20915;-91
2022/08/07 04:30:56;;;;;;;16.30;10.90;;;;;;;19.46;90.50;100757.76;1822889;78;20982;-91
2022/08/07 04:33:25;;;;;;;12.88;9.98;;;;;;;19.64;90.30;100761.81;1822330;78;20832;-92
2022/08/07 04:35:52;;;;;;;13.72;10.55;;;;;;;19.88;89.73;100767.95;1823150;78;21468;-91
2022/08/07 04:38:20;;;;;;;21.45;10.72;;;;;;;20.29;89.25;100765.70;1822725;78;21473;-90
2022/08/07 04:40:47;;;;;;;14.85;9.50;;;;;;;20.86;88.50;100760.89;1823039;78;20931;-91
2022/08/07 04:43:15;;;;;;;17.45;10.88;;;;;;;21.42;86.36;100765.42;1824317;78;21381;-92
2022/08/07 04:46:11;;;;;;;13.85;9.65;;;;;;;21.92;83.98;100763.77;1826486;78;20883;-92
2022/08/07 04:49:00;;;;;;;9.60;8.60;;;;;;;22.32;81.63;100775.10;1815140;78;20895;-92
2022/08/07 04:51:45;;;;;;;16.17;9.23;;;;;;;22.61;79.03;100767.11;1826343;78;21817;-91
2022/08/07 04:55:06;;;;;;;16.70;10.80;;;;;;;22.78;76.81;100771.93;1795271;78;20837;-91
2022/08/07 04:57:50;;;;;;;20.40;11.25;;;;;;;22.92;76.69;100771.27;1825620;78;20911;-92
2022/08/07 05:00:36;;;;;;;12.98;11.30;;;;;;;23.13;75.78;100769.92;1825776;78;20871;-91
2022/08/07 05:03:24;;;;;;;13.48;11.73;;;;;;;23.37;72.28;100773.05;1821894;78;20828;-91
2022/08/07 05:06:09;;;;;;;11.00;9.88;;;;;;;23.63;69.02;100775.44;1825972;78;21231;-92
2022/08/07 05:09:06;;;;;;;10.55;9.48;;;;;;;23.95;65.41;100778.51;1822577;78;20986;-90
2022/08/07 05:11:42;;;;;;;12.07;7.65;;;;;;;24.39;63.65;100781.09;1825233;78;21306;-91
2022/08/07 05:14:13;;;;;;;13.18;8.55;;;;;;;25.12;61.04;100786.33;1826212;78;20891;-91
2022/08/07 05:16:40;;;;;;;19.95;9.45;;;;;;;25.87;59.30;100780.98;1825670;78;20935;-91
2022/08/07 05:19:16;;;;;;;13.18;7.87;;;;;;;26.59;58.66;100789.05;1825626;78;21182;-92
2022/08/07 05:21:46;;;;;;;13.25;7.70;;;;;;;27.27;56.29;100781.80;1825550;78;20959;-91
2022/08/07 05:24:16;;;;;;;10.72;8.80;;;;;;;28.00;53.22;100782.69;1825533;78;20914;-90
2022/08/07 05:26:43;;;;;;;13.13;8.50;;;;;;;28.64;52.20;100781.38;1825437;78;20931;-91
2022/08/07 05:29:09;;;;;;;9.33;8.18;;;;;;;29.22;50.59;100785.61;1825456;78;21413;-91
2022/08/07 05:31:39;;;;;;;11.12;9.28;;;;;;;29.77;49.37;100780.35;1825365;78;21134;-90
2022/08/07 05:34:13;;;;;;;17.23;8.53;;;;;;;30.29;48.03;100790.09;1825526;78;20847;-90
2022/08/07 05:36:46;;;;;;;;;;;;;;;30.70;45.97;100782.49;1828518;78;20974;-89
2022/08/07 05:39:17;;;;;;;15.13;8.45;;;;;;;31.10;45.41;100786.22;1824456;78;20094;-90
2022/08/07 05:41:46;;;;;;;10.15;7.67;;;;;;;31.47;44.51;100783.57;1825489;78;20879;-92
2022/08/07 05:44:14;;;;;;;8.70;7.75;;;;;;;31.86;42.38;100781.40;1822927;78;21276;-91
2022/08/07 05:46:42;;;;;;;9.50;8.00;;;;;;;32.26;41.32;100778.16;1822029;78;21287;-92
2022/08/07 05:49:10;;;;;;;11.43;7.78;;;;;;;32.62;39.30;100781.28;1822037;78;20888;-93
2022/08/07 05:51:37;;;;;;;10.13;8.20;;;;;;;32.96;38.83;100776.91;1821776;78;21381;-93
2022/08/07 05:54:04;;;;;;;8.23;7.10;;;;;;;33.34;38.03;100778.31;1822037;78;20880;-93
2022/08/07 05:56:31;;;;;;;11.88;7.95;;;;;;;33.71;37.71;100777.20;1822082;78;21132;-93
2022/08/07 05:59:00;;;;;;;9.58;8.23;;;;;;;34.07;37.77;100778.70;1816977;78;20872;-92
2022/08/07 06:01:28;;;;;;;8.15;5.87;;;;;;;34.37;37.07;100778.97;1790468;78;21440;-92
2022/08/07 06:03:55;;;;;;;7.15;5.70;;;;;;;34.56;36.12;100778.20;1821736;78;20903;-93
2022/08/07 06:06:22;;;;;;;6.40;5.80;;;;;;;34.64;36.19;100781.88;1822015;78;20923;-93
2022/08/07 06:08:50;;;;;;;5.97;5.08;;;;;;;34.82;35.29;100778.92;1822066;78;21893;-93
2022/08/07 06:11:17;;;;;;;6.65;4.20;;;;;;;35.08;34.83;100780.12;1816806;78;20967;-93
2022/08/07 06:13:43;;;;;;;6.67;4.30;;;;;;;35.31;34.45;100780.99;1821912;78;21420;-91
2022/08/07 06:16:11;;;;;;;6.22;3.92;;;;;;;35.51;32.36;100783.15;1821840;78;20951;-95
2022/08/07 06:18:38;;;;;;;7.33;3.60;;;;;;;35.70;32.46;100777.66;1822151;78;21466;-95
2022/08/07 06:21:04;;;;;;;20.30;4.55;;;;;;;35.95;32.25;100780.92;1822840;78;21088;-95
2022/08/07 06:23:32;;;;;;;7.62;4.37;;;;;;;36.17;31.49;100778.98;1822328;78;20943;-94
2022/08/07 06:25:59;;;;;;;8.95;3.40;;;;;;;36.45;31.13;100778.42;1821924;78;20935;-92
2022/08/07 06:28:26;;;;;;;5.62;2.90;;;;;;;36.72;31.01;100772.91;1821997;78;20946;-93
2022/08/07 06:30:54;;;;;;;3.77;2.70;;;;;;;36.90;30.75;100770.28;1822083;78;20955;-94
2022/08/07 06:33:21;;;;;;;4.75;2.85;;;;;;;37.03;29.90;100768.45;1822289;78;21263;-93
2022/08/07 06:35:49;;;;;;;5.80;2.80;;;;;;;37.25;29.10;100771.61;1822317;78;20967;-95
2022/08/07 06:38:15;;;;;;;5.10;3.00;;;;;;;37.47;28.18;100765.39;1821809;78;20875;-94
2022/08/07 06:40:48;;;;;;;3.77;2.90;;;;;;;37.69;28.49;100770.70;1822008;78;20852;-93
2022/08/07 06:43:15;;;;;;;3.90;3.42;;;;;;;37.87;28.74;100769.37;1822182;78;21393;-94
2022/08/07 06:45:55;;;;;;;3.98;2.98;;;;;;;38.06;28.27;100769.69;1820429;78;21314;-94
2022/08/07 06:48:22;;;;;;;9.20;3.37;;;;;;;38.12;27.95;100775.45;1822155;78;20872;-94
2022/08/07 06:50:49;;;;;;;3.52;2.67;;;;;;;38.27;27.94;100776.57;1822074;78;20970;-95
2022/08/07 06:53:19;;;;;;;6.08;2.85;;;;;;;38.27;27.36;100774.64;1821720;78;21429;-91
2022/08/07 06:55:46;;;;;;;4.40;2.75;;;;;;;38.39;27.64;100778.47;1821718;78;20836;-95
2022/08/07 06:58:12;;;;;;;4.95;2.70;;;;;;;38.58;27.04;100777.41;1821925;78;21131;-94
2022/08/07 07:00:41;;;;;;;7.83;2.47;;;;;;;38.57;26.71;100778.48;1821705;78;20998;-93
2022/08/07 07:03:08;;;;;;;2.12;2.00;;;;;;;38.56;26.60;100778.23;1821786;78;20974;-93
2022/08/07 07:05:36;;;;;;;3.40;1.80;;;;;;;38.58;26.77;100784.27;1821936;78;20911;-93
2022/08/07 07:08:02;;;;;;;4.45;1.82;;;;;;;38.61;26.11;100779.59;1821695;78;20872;-93
2022/08/07 07:10:32;;;;;;;10.10;2.67;;;;;;;38.56;26.60;100783.72;1817528;78;21088;-94
2022/08/07 07:13:28;;;;;;;5.65;2.20;;;;;;;38.51;26.67;100778.21;1821776;78;20920;-93
2022/08/07 07:16:02;;;;;;;6.17;2.50;;;;;;;38.36;26.80;100774.37;1822254;78;20879;-92
2022/08/07 07:18:33;;;;;;;3.17;2.15;;;;;;;38.35;27.21;100776.84;1822399;78;20903;-92
2022/08/07 07:21:28;;;;;;;3.95;1.90;;;;;;;38.36;27.03;100781.22;1822408;78;20946;-93
2022/08/07 07:23:54;;;;;;;3.22;1.70;;;;;;;38.53;27.05;100780.98;1822973;78;22173;-94
2022/08/07 07:26:21;;;;;;;9.08;3.05;;;;;;;38.66;26.81;100778.20;1822556;78;20955;-94
2022/08/07 07:29:02;;;;;;;6.33;2.33;;;;;;;38.76;26.40;100785.05;1822590;78;20880;-93
2022/08/07 07:31:39;;;;;;;6.62;1.95;;;;;;;38.81;26.80;100781.47;1822145;78;20923;-95
2022/08/07 07:34:09;;;;;;;6.97;2.12;;;;;;;38.93;27.00;100776.56;1821703;78;20833;-93
2022/08/07 07:36:39;;;;;;;4.92;2.52;;;;;;;38.98;26.65;100778.46;1822735;78;21186;-95
2022/08/07 07:39:05;;;;;;;3.40;2.02;;;;;;;39.01;26.69;100782.01;1817006;78;20884;-95
2022/08/07 07:41:34;;;;;;;4.47;1.92;;;;;;;39.18;26.59;100777.02;1821860;78;20994;-96
2022/08/07 07:44:01;;;;;;;6.62;2.67;;;;;;;39.42;26.10;100779.69;1823118;78;20887;-94
2022/08/07 07:46:30;;;;;;;5.75;2.22;;;;;;;39.65;25.51;100779.03;1825595;77;20950;-95
2022/08/07 07:48:57;;;;;;;4.22;2.55;;;;;;;39.94;25.84;100781.89;1826511;76;21244;-93
2022/08/07 07:51:23;;;;;;;3.30;1.95;;;;;;;40.23;25.93;100781.70;1826246;78;20836;-95
2022/08/07 07:53:50;;;;;;;4.17;2.15;;;;;;;40.48;24.79;100777.93;1825583;77;20962;-94
2022/08/07 07:56:16;;;;;;;4.55;2.12;;;;;;;40.69;24.58;100773.89;1825282;78;20907;-92
2022/08/07 07:58:43;;;;;;;3.80;2.10;;;;;;;40.84;23.67;100767.41;1797005;78;21388;-94
2022/08/07 08:01:10;;;;;;;5.50;1.72;;;;;;;40.81;24.35;100771.57;1826279;78;21224;-95
2022/08/07 08:03:37;;;;;;;5.95;2.10;;;;;;;40.91;24.14;100765.69;1826204;78;20871;-93
2022/08/07 08:06:05;;;;;;;4.05;1.90;;;;;;;41.10;24.16;100767.13;1825867;78;20883;-94
2022/08/07 08:08:32;;;;;;;4.33;2.00;;;;;;;41.25;24.39;100768.92;1826390;78;20907;-95
2022/08/07 08:11:05;;;;;;;7.28;3.75;;;;;;;41.39;24.16;100769.26;1826170;77;20903;-94
2022/08/07 08:13:32;;;;;;;5.95;2.22;;;;;;;41.48;23.41;100763.09;1825106;77;21148;-94
2022/08/07 08:16:00;;;;;;;2.77;1.62;;;;;;;41.37;23.32;100770.67;1825256;78;20970;-94
2022/08/07 08:18:28;;;;;;;3.72;1.55;;;;;;;41.21;23.17;100772.24;1825422;78;20919;-95
2022/08/07 08:20:59;;;;;;;4.92;3.33;;;;;;;41.26;23.69;100767.23;1825629;77;20910;-95
2022/08/07 08:29:00;;;;;;;2.72;1.62;;;;;;;41.62;22.96;100767.61;1825951;78;20868;-94
2022/08/07 08:31:31;;;;;;;5.67;2.00;;;;;;;41.63;22.98;100770.61;1825729;77;20840;-94
2022/08/07 08:33:58;;;;;;;2.35;1.60;;;;;;;41.63;23.69;100768.42;1826048;77;20935;-95
2022/08/07 08:36:28;;;;;;;2.40;1.90;;;;;;;41.75;23.20;100767.97;1826194;77;20840;-93
2022/08/07 08:38:55;;;;;;;4.15;1.75;;;;;;;41.80;23.26;100767.34;1827627;77;21208;-93
2022/08/07 08:41:46;;;;;;;2.05;1.37;;;;;;;41.90;22.60;100768.30;1826775;78;20883;-92
2022/08/07 08:44:44;;;;;;;2.85;2.40;;;;;;;41.90;22.56;100766.36;1825199;78;20907;-94
2022/08/07 08:47:43;;;;;;;6.67;2.08;;;;;;;42.00;22.57;100765.41;1822453;78;20884;-94
2022/08/07 08:50:32;;;;;;;3.00;1.42;;;;;;;42.02;22.05;100761.79;1822402;78;20993;-93
2022/08/07 08:53:28;;;;;;;4.15;1.80;;;;;;;42.08;22.61;100757.03;1818330;78;21251;-92
2022/08/07 08:56:00;;;;;;;3.30;1.50;;;;;;;42.25;22.68;100755.91;1822160;78;20875;-93
2022/08/07 08:58:35;;;;;;;4.58;1.60;;;;;;;42.42;22.72;100762.25;1822205;78;20860;-93
2022/08/07 09:01:13;;;;;;;3.22;1.87;;;;;;;42.47;22.33;100756.66;1823102;78;20935;-94
2022/08/07 09:03:56;;;;;;;4.92;1.17;;;;;;;42.54;22.15;100757.08;1793472;78;20970;-93
2022/08/07 09:06:51;;;;;;;2.50;1.40;;;;;;;42.55;21.89;100757.32;1824616;78;21386;-93
2022/08/07 09:09:42;;;;;;;6.67;1.30;;;;;;;42.48;21.39;100757.47;1824703;78;20990;-93
2022/08/07 09:12:13;;;;;;;4.72;1.35;;;;;;;42.39;21.62;100757.32;1825442;78;20919;-92
2022/08/07 09:15:00;;;;;;;1.98;1.60;;;;;;;42.42;20.96;100749.84;1824075;78;20970;-91
2022/08/07 09:17:45;;;;;;;4.05;1.20;;;;;;;42.47;21.08;100755.28;1824793;78;20942;-95
2022/08/07 09:20:18;;;;;;;2.17;1.82;;;;;;;42.54;21.09;100753.51;1824531;78;21162;-91
2022/08/07 09:23:03;;;;;;;1.75;1.60;;;;;;;42.71;20.76;100749.56;1824630;77;20917;-94
2022/08/07 09:25:57;;;;;;;2.15;1.22;;;;;;;42.65;20.77;100746.67;1825064;77;20860;-94
2022/08/07 09:28:31;;;;;;;2.30;0.95;;;;;;;42.73;20.61;100745.13;1825463;77;20959;-96
2022/08/07 09:31:18;;;;;;;2.98;1.25;;;;;;;42.80;20.38;100745.00;1792522;78;20911;-93
2022/08/07 09:34:16;;;;;;;2.77;0.78;;;;;;;42.88;20.40;100749.58;1823992;77;21138;-94
2022/08/07 09:37:13;;;;;;;1.30;0.70;;;;;;;42.91;20.12;100747.56;1824592;77;20885;-93
2022/08/07 09:39:51;;;;;;;6.05;1.15;;;;;;;42.96;19.96;100736.45;1819149;77;20885;-93
2022/08/07 09:42:35;;;;;;;2.98;0.95;;;;;;;43.07;19.40;100744.77;1823961;77;20955;-93
2022/08/07 09:45:27;;;;;;;200.45;181.65;;;;;;;43.16;19.16;100749.81;1823463;77;20891;-94
2022/08/07 09:48:00;;;;;;;9.38;6.37;;;;;;;43.20;19.29;100743.94;1824261;77;21188;-92
2022/08/07 09:51:10;;;;;;;3.90;1.95;;;;;;;43.28;18.95;100740.22;1824218;77;20884;-93
2022/08/07 09:53:37;;;;;;;3.00;0.93;;;;;;;43.35;18.64;100750.27;1824616;77;20888;-95
2022/08/07 09:56:58;;;;;;;3.00;0.88;;;;;;;43.31;17.72;100747.30;1823424;78;20899;-95
2022/08/07 09:59:56;;;;;;;2.55;0.90;;;;;;;43.24;17.91;100747.72;1822675;78;20895;-94
2022/08/07 10:02:40;;;;;;;2.40;1.02;;;;;;;43.18;17.68;100739.83;1822721;78;21138;-94
2022/08/07 10:05:31;;;;;;;2.67;0.70;;;;;;;43.29;18.37;100745.44;1823541;78;20864;-92
2022/08/07 10:08:25;;;;;;;3.17;0.65;;;;;;;43.30;17.37;100750.39;1822906;78;20987;-96
2022/08/07 10:11:35;;;;;;;2.85;1.45;;;;;;;43.18;16.85;100742.05;1819886;78;20915;-94
2022/08/07 10:14:13;;;;;;;4.53;2.50;;;;;;;43.04;17.26;100737.89;1822408;78;20963;-91
2022/08/07 10:17:11;;;;;;;6.20;2.85;;;;;;;43.08;17.48;100735.92;1822188;78;21793;-94
2022/08/07 10:20:09;;;;;;;2.42;1.47;;;;;;;43.18;17.40;100734.30;1822006;78;20947;-93
2022/08/07 10:22:56;;;;;;;2.30;0.82;;;;;;;43.16;16.99;100733.25;1822194;78;20951;-94
2022/08/07 10:25:58;;;;;;;4.72;0.90;;;;;;;43.04;17.33;100733.75;1821872;78;20884;-92
2022/08/07 10:28:46;;;;;;;4.17;0.88;;;;;;;43.10;16.94;100730.34;1822048;78;20923;-94
2022/08/07 10:31:53;;;;;;;2.77;0.60;;;;;;;43.10;17.25;100730.91;1822058;78;21856;-91
2022/08/07 10:34:49;;;;;;;2.70;0.50;;;;;;;43.16;17.13;100729.11;1822360;78;21441;-92
2022/08/07 10:37:53;;;;;;;2.75;0.85;;;;;;;43.22;16.55;100725.15;1822746;78;20875;-92
2022/08/07 10:40:37;;;;;;;5.42;0.50;;;;;;;43.24;16.86;100724.25;1781924;80;20988;-94
2022/08/07 10:43:18;;;;;;;3.62;0.78;;;;;;;43.26;16.47;100721.19;1731023;80;20902;-93
2022/08/07 10:45:53;;;;;;;2.45;0.82;;;;;;;43.19;16.61;100720.20;1779307;79;21272;-95
2022/08/07 10:48:47;;;;;;;2.70;1.30;;;;;;;43.21;16.93;100717.95;1787991;80;20948;-95
2022/08/07 10:51:28;;;;;;;135.97;124.87;;;;;;;43.23;16.92;100721.82;1787784;79;20899;-94
2022/08/07 10:54:12;;;;;;;10.75;3.22;;;;;;;43.17;16.84;100716.12;1787784;79;20904;-95
2022/08/07 10:57:12;;;;;;;4.08;1.00;;;;;;;43.20;16.87;100712.73;1788280;79;20943;-95
2022/08/07 11:00:07;;;;;;;10.00;9.13;;;;;;;43.17;16.67;100710.59;1788111;80;21472;-93
2022/08/07 11:02:57;;;;;;;12.70;7.67;;;;;;;43.08;16.58;100711.88;1787848;79;20920;-95
2022/08/07 11:05:50;;;;;;;3.22;0.82;;;;;;;43.00;17.16;100710.69;1787506;79;20919;-95
2022/08/07 11:08:36;;;;;;;4.53;0.90;;;;;;;43.04;16.51;100707.53;1782672;80;20903;-96
2022/08/07 11:11:35;;;;;;;1.20;0.50;;;;;;;42.98;16.97;100709.33;1788106;80;20884;-95
2022/08/07 11:14:28;;;;;;;4.00;3.20;;;;;;;42.95;16.77;100708.58;1785252;80;21864;-94
2022/08/07 11:17:05;;;;;;;5.85;1.62;;;;;;;42.84;16.40;100706.02;1792025;80;20848;-95
2022/08/07 11:20:05;;;;;;;1.72;0.30;;;;;;;42.55;16.70;100702.16;1793598;79;20851;-95
2022/08/07 11:22:50;;;;;;;2.85;2.02;;;;;;;42.49;17.00;100705.32;1790592;80;20938;-95
2022/08/07 11:25:52;;;;;;;6.42;0.88;;;;;;;42.28;16.67;100696.59;1793005;80;21349;-94
2022/08/07 11:28:25;;;;;;;3.47;1.70;;;;;;;42.04;17.06;100701.68;1770365;80;21891;-93
2022/08/07 11:31:06;;;;;;;1.60;0.70;;;;;;;41.70;17.58;100699.20;1764650;80;20962;-96
2022/08/07 11:33:45;;;;;;;5.50;2.17;;;;;;;41.47;17.95;100692.61;1793246;80;21461;-95
2022/08/07 11:36:42;;;;;;;6.42;1.20;;;;;;;41.37;18.75;100697.72;1792830;79;21329;-94
2022/08/07 11:39:26;;;;;;;5.85;3.50;;;;;;;41.26;18.62;100697.03;1793035;80;21348;-96
2022/08/07 11:42:19;;;;;;;11.63;4.65;;;;;;;41.13;18.60;100693.08;1792243;80;21935;-95
2022/08/07 11:45:00;;;;;;;3.60;2.17;;;;;;;41.01;18.85;100688.55;1790573;80;20938;-93
2022/08/07 11:47:47;;;;;;;3.45;1.32;;;;;;;40.85;19.35;100680.23;1807733;78;20887;-93
2022/08/07 11:50:37;;;;;;;1.40;1.30;;;;;;;40.52;18.92;100689.08;1822631;78;20880;-94
2022/08/07 11:53:39;;;;;;;1.85;0.50;;;;;;;40.30;19.77;100679.96;1822912;78;21401;-94
2022/08/07 11:56:15;;;;;;;3.30;0.62;;;;;;;40.08;19.45;100679.03;1822339;78;21779;-94
2022/08/07 11:59:15;;;;;;;2.55;0.70;;;;;;;39.73;19.55;100674.09;1822042;78;21397;-92
2022/08/07 12:02:13;;;;;;;1.82;0.93;;;;;;;39.33;19.71;100672.39;1782632;79;20940;-93